createdAt,value
2023-09-23T00:01:06.900Z,71.52
2023-09-23T00:03:36.371Z,71.50
2023-09-23T00:06:07.016Z,71.75
2023-09-23T00:08:36.828Z,71.60
2023-09-23T00:11:05.912Z,71.67
2023-09-23T00:13:34.505Z,71.85
2023-09-23T00:16:04.654Z,71.62
2023-09-23T00:18:33.880Z,71.86
2023-09-23T00:21:03.449Z,71.80
2023-09-23T00:23:32.332Z,71.68
2023-09-23T00:26:03.959Z,71.78
2023-09-23T00:28:32.620Z,72.09
2023-09-23T00:31:12.217Z,72.08
2023-09-23T00:33:41.433Z,72.46
2023-09-23T00:36:11.433Z,72.47
2023-09-23T00:38:41.344Z,72.38
2023-09-23T00:41:11.030Z,72.30
2023-09-23T00:43:41.720Z,72.46
2023-09-23T00:46:11.919Z,72.54
2023-09-23T00:48:44.675Z,72.46
2023-09-23T00:51:14.249Z,72.23
2023-09-23T00:53:45.715Z,72.47
2023-09-23T00:56:20.881Z,72.36
2023-09-23T00:58:49.660Z,72.46
2023-09-23T01:01:18.270Z,72.55
2023-09-23T01:03:49.254Z,72.70
2023-09-23T01:06:18.507Z,72.94
2023-09-23T01:08:48.152Z,72.94
2023-09-23T01:11:19.668Z,72.75
2023-09-23T01:13:51.596Z,73.05
2023-09-23T01:16:23.428Z,73.25
2023-09-23T01:18:52.516Z,73.16
2023-09-23T01:21:22.749Z,73.08
2023-09-23T01:23:54.829Z,73.14
2023-09-23T01:26:24.705Z,73.41
2023-09-23T01:28:53.204Z,73.33
2023-09-23T01:31:23.779Z,73.35
2023-09-23T01:33:52.659Z,73.61
2023-09-23T01:36:21.270Z,73.48
2023-09-23T01:38:50.665Z,73.58
2023-09-23T01:41:20.480Z,73.41
2023-09-23T01:43:50.163Z,73.54
2023-09-23T01:46:20.963Z,73.26
2023-09-23T01:48:49.325Z,73.14
2023-09-23T01:51:18.993Z,73.54
2023-09-23T01:53:47.927Z,73.46
2023-09-23T01:56:16.291Z,73.81
2023-09-23T01:58:46.876Z,73.68
2023-09-23T02:01:15.809Z,74.09
2023-09-23T02:03:45.156Z,74.10
2023-09-23T02:06:14.064Z,74.31
2023-09-23T02:08:42.526Z,73.95
2023-09-23T02:11:11.103Z,73.94
2023-09-23T02:13:42.608Z,74.29
2023-09-23T02:16:13.007Z,73.99
2023-09-23T02:18:42.895Z,74.47
2023-09-23T02:21:13.954Z,74.47
2023-09-23T02:23:43.132Z,74.33
2023-09-23T02:26:12.379Z,74.59
2023-09-23T02:28:41.769Z,74.30
2023-09-23T02:31:10.957Z,74.38
2023-09-23T02:33:40.749Z,74.50
2023-09-23T02:36:09.382Z,74.26
2023-09-23T02:38:37.861Z,74.47
2023-09-23T02:41:07.372Z,74.43
2023-09-23T02:43:37.985Z,74.36
2023-09-23T02:46:08.102Z,74.29
2023-09-23T02:48:36.580Z,74.26
2023-09-23T02:51:06.458Z,74.13
2023-09-23T02:53:36.160Z,74.34
2023-09-23T02:56:08.868Z,74.33
2023-09-23T02:58:39.677Z,74.69
2023-09-23T03:01:10.603Z,74.36
2023-09-23T03:03:42.027Z,74.06
2023-09-23T03:06:16.322Z,74.07
2023-09-23T03:08:49.175Z,74.19
2023-09-23T03:11:19.897Z,74.34
2023-09-23T03:13:50.859Z,74.45
2023-09-23T03:16:29.716Z,74.16
2023-09-23T03:19:11.572Z,74.56
2023-09-23T03:21:42.427Z,74.16
2023-09-23T03:24:11.659Z,74.28
2023-09-23T03:26:42.097Z,74.31
2023-09-23T03:29:11.325Z,74.30
2023-09-23T03:31:40.709Z,74.46
2023-09-23T03:34:09.075Z,74.61
2023-09-23T03:36:37.634Z,74.58
2023-09-23T03:39:08.135Z,74.48
2023-09-23T03:41:38.266Z,74.65
2023-09-23T03:44:08.672Z,74.35
2023-09-23T03:46:37.884Z,74.64
2023-09-23T03:49:06.455Z,74.52
2023-09-23T03:51:36.147Z,74.56
2023-09-23T03:54:04.487Z,74.38
2023-09-23T03:56:35.077Z,74.33
2023-09-23T03:59:08.223Z,74.35
2023-09-23T04:01:37.848Z,74.38
2023-09-23T04:04:08.382Z,74.28
2023-09-23T04:06:36.836Z,74.30
2023-09-23T04:09:08.690Z,74.14
2023-09-23T04:11:38.344Z,74.40
2023-09-23T04:14:07.579Z,74.12
2023-09-23T04:16:36.407Z,74.54
2023-09-23T04:19:05.330Z,74.68
2023-09-23T04:21:33.603Z,74.77
2023-09-23T04:24:02.773Z,74.67
2023-09-23T04:26:31.657Z,74.86
2023-09-23T04:29:01.335Z,75.24
2023-09-23T04:31:29.669Z,75.04
2023-09-23T04:33:58.103Z,75.13
2023-09-23T04:36:27.103Z,75.06
2023-09-23T04:38:55.344Z,75.17
2023-09-23T04:41:23.819Z,75.12
2023-09-23T04:43:52.194Z,75.08
2023-09-23T04:46:21.954Z,75.21
2023-09-23T04:48:50.477Z,75.18
2023-09-23T04:51:19.080Z,75.19
2023-09-23T04:53:47.274Z,75.07
2023-09-23T04:56:18.629Z,75.30
2023-09-23T04:58:47.356Z,75.28
2023-09-23T05:01:17.617Z,75.38
2023-09-23T05:03:48.080Z,75.54
2023-09-23T05:06:16.501Z,75.62
2023-09-23T05:08:45.756Z,75.71
2023-09-23T05:11:14.587Z,75.92
2023-09-23T05:13:43.378Z,75.41
2023-09-23T05:16:11.865Z,75.55
2023-09-23T05:18:40.768Z,75.97
2023-09-23T05:21:11.301Z,75.81
2023-09-23T05:23:42.030Z,75.82
2023-09-23T05:26:10.451Z,75.78
2023-09-23T05:28:38.688Z,75.97
2023-09-23T05:31:07.741Z,75.88
2023-09-23T05:33:36.212Z,75.92
2023-09-23T05:36:05.980Z,76.02
2023-09-23T05:38:37.748Z,75.89
2023-09-23T05:41:06.222Z,75.98
2023-09-23T05:43:34.588Z,75.93
2023-09-23T05:46:06.898Z,75.90
2023-09-23T05:48:35.318Z,76.13
2023-09-23T05:51:07.522Z,76.03
2023-09-23T05:53:37.225Z,76.10
2023-09-23T05:56:05.953Z,76.03
2023-09-23T05:58:34.321Z,76.04
2023-09-23T06:01:02.846Z,76.18
2023-09-23T06:03:31.506Z,75.87
2023-09-23T06:06:00.383Z,76.15
2023-09-23T06:08:28.981Z,76.07
2023-09-23T06:11:06.343Z,75.67
2023-09-23T06:13:35.430Z,76.05
2023-09-23T06:16:04.955Z,75.74
2023-09-23T06:18:34.606Z,75.81
2023-09-23T06:21:04.157Z,75.70
2023-09-23T06:23:33.663Z,75.77
2023-09-23T06:26:04.043Z,75.96
2023-09-23T06:28:32.922Z,75.91
2023-09-23T06:31:01.266Z,76.19
2023-09-23T06:33:29.724Z,75.95
2023-09-23T06:35:58.136Z,75.89
2023-09-23T06:38:26.439Z,75.84
2023-09-23T06:40:58.410Z,75.65
2023-09-23T06:43:28.206Z,75.96
2023-09-23T06:45:57.183Z,76.09
2023-09-23T06:48:27.011Z,75.91
2023-09-23T06:51:01.920Z,76.31
2023-09-23T06:53:30.472Z,76.59
2023-09-23T06:55:59.364Z,76.47
2023-09-23T06:58:29.258Z,76.99
2023-09-23T07:00:57.627Z,76.44
2023-09-23T07:03:26.172Z,76.59
2023-09-23T07:05:54.661Z,76.70
2023-09-23T07:08:23.133Z,76.62
2023-09-23T07:10:52.375Z,76.64
2023-09-23T07:13:20.744Z,77.07
2023-09-23T07:15:50.421Z,77.04
2023-09-23T07:18:18.878Z,76.78
2023-09-23T07:20:47.178Z,77.08
2023-09-23T07:23:15.792Z,77.44
2023-09-23T07:25:44.530Z,77.46
2023-09-23T07:28:12.931Z,77.24
2023-09-23T07:30:41.208Z,77.01
2023-09-23T07:33:11.120Z,77.23
2023-09-23T07:35:39.433Z,77.35
2023-09-23T07:38:07.695Z,77.20
2023-09-23T07:40:41.004Z,77.37
2023-09-23T07:43:09.576Z,77.44
2023-09-23T07:45:38.003Z,77.51
2023-09-23T07:48:08.973Z,77.96
2023-09-23T07:50:39.170Z,74.91
2023-09-23T07:53:07.558Z,72.10
2023-09-23T07:55:36.113Z,70.83
2023-09-23T07:58:04.502Z,69.94
2023-09-23T08:00:33.122Z,68.35
2023-09-23T08:03:01.531Z,66.53
2023-09-23T08:05:30.957Z,67.05
2023-09-23T08:08:00.975Z,67.51
2023-09-23T08:10:29.246Z,67.20
2023-09-23T08:12:57.613Z,67.33
2023-09-23T08:15:25.864Z,67.98
2023-09-23T08:17:54.375Z,68.53
2023-09-23T08:20:25.249Z,69.20
2023-09-23T08:22:56.753Z,68.59
2023-09-23T08:25:28.689Z,68.95
2023-09-23T08:27:58.338Z,69.24
2023-09-23T08:30:26.702Z,69.90
2023-09-23T08:32:56.461Z,70.42
2023-09-23T08:35:24.944Z,70.11
2023-09-23T08:37:53.855Z,70.26
2023-09-23T08:40:22.296Z,70.21
2023-09-23T08:42:54.510Z,69.99
2023-09-23T08:45:27.291Z,70.14
2023-09-23T08:47:56.797Z,70.06
2023-09-23T08:50:26.524Z,70.14
2023-09-23T08:52:55.780Z,70.57
2023-09-23T08:55:26.051Z,71.25
2023-09-23T08:57:56.601Z,70.94
2023-09-23T09:00:25.110Z,71.02
2023-09-23T09:02:53.533Z,70.56
2023-09-23T09:05:22.223Z,70.84
2023-09-23T09:07:50.738Z,71.04
2023-09-23T09:10:19.453Z,70.29
2023-09-23T09:12:48.130Z,70.39
2023-09-23T09:15:19.491Z,69.44
2023-09-23T09:17:47.951Z,69.54
2023-09-23T09:20:16.291Z,69.50
2023-09-23T09:22:45.723Z,69.28
2023-09-23T09:25:15.155Z,69.22
2023-09-23T09:27:45.421Z,68.39
2023-09-23T09:30:14.804Z,68.19
2023-09-23T09:32:46.028Z,67.13
2023-09-23T09:35:16.006Z,66.00
2023-09-23T09:37:45.945Z,66.27
2023-09-23T09:40:18.455Z,65.90
2023-09-23T09:42:55.321Z,66.20
2023-09-23T09:45:24.645Z,67.17
2023-09-23T09:47:58.885Z,67.36
2023-09-23T09:50:29.280Z,67.84
2023-09-23T09:52:57.711Z,68.06
2023-09-23T09:55:26.385Z,68.41
2023-09-23T09:57:55.962Z,68.25
2023-09-23T10:00:28.825Z,68.23
2023-09-23T10:03:07.145Z,67.41
2023-09-23T10:05:37.295Z,65.82
2023-09-23T10:08:14.371Z,66.04
2023-09-23T10:10:48.565Z,66.09
2023-09-23T10:13:18.090Z,66.19
2023-09-23T10:15:46.982Z,65.05
2023-09-23T10:18:19.161Z,64.58
2023-09-23T10:20:49.563Z,65.66
2023-09-23T10:23:19.443Z,65.57
2023-09-23T10:25:52.503Z,64.66
2023-09-23T10:28:22.880Z,64.58
2023-09-23T10:31:01.839Z,63.98
2023-09-23T10:33:46.446Z,63.36
2023-09-23T10:36:21.789Z,63.15
2023-09-23T10:38:50.138Z,62.61
2023-09-23T10:41:19.398Z,61.40
2023-09-23T10:43:55.128Z,60.11
2023-09-23T10:46:24.981Z,59.41
2023-09-23T10:49:01.214Z,59.68
2023-09-23T10:51:30.199Z,60.10
2023-09-23T10:53:58.719Z,58.22
2023-09-23T10:56:28.323Z,56.60
2023-09-23T10:58:57.319Z,56.31
2023-09-23T11:01:26.352Z,56.73
2023-09-23T11:03:56.320Z,55.99
2023-09-23T11:06:26.582Z,55.94
2023-09-23T11:08:56.372Z,54.84
2023-09-23T11:11:24.755Z,53.85
2023-09-23T11:13:53.041Z,55.48
2023-09-23T11:16:24.270Z,54.40
2023-09-23T11:18:53.422Z,54.39
2023-09-23T11:21:23.082Z,53.11
2023-09-23T11:23:58.811Z,53.26
2023-09-23T11:26:27.249Z,53.82
2023-09-23T11:28:55.679Z,53.59
2023-09-23T11:31:24.508Z,52.22
2023-09-23T11:33:52.821Z,51.63
2023-09-23T11:36:22.590Z,51.09
2023-09-23T11:38:51.054Z,51.53
2023-09-23T11:41:19.745Z,51.53
2023-09-23T11:43:51.393Z,51.23
2023-09-23T11:46:23.491Z,51.00
2023-09-23T11:48:52.074Z,51.59
2023-09-23T11:51:21.164Z,50.03
2023-09-23T11:53:50.892Z,50.01
2023-09-23T11:56:19.293Z,50.56
2023-09-23T11:59:01.907Z,49.96
2023-09-23T12:01:36.259Z,49.06
2023-09-23T12:04:06.372Z,49.59
2023-09-23T12:06:36.630Z,50.14
2023-09-23T12:09:10.532Z,50.12
2023-09-23T12:11:39.190Z,50.54
2023-09-23T12:14:11.305Z,49.82
2023-09-23T12:16:40.188Z,49.39
2023-09-23T12:19:08.897Z,50.65
2023-09-23T12:21:37.292Z,49.28
2023-09-23T12:24:08.096Z,49.18
2023-09-23T12:26:36.811Z,48.93
2023-09-23T12:29:05.440Z,48.60
2023-09-23T12:31:34.211Z,47.74
2023-09-23T12:34:02.849Z,47.74
2023-09-23T12:36:31.414Z,47.85
2023-09-23T12:39:00.139Z,47.78
2023-09-23T12:41:30.416Z,46.95
2023-09-23T12:43:58.816Z,46.98
2023-09-23T12:46:27.842Z,46.34
2023-09-23T12:48:57.131Z,46.90
2023-09-23T12:51:25.465Z,47.82
2023-09-23T12:53:53.743Z,47.85
2023-09-23T12:56:23.339Z,48.52
2023-09-23T12:58:55.155Z,49.79
2023-09-23T13:01:23.493Z,48.86
2023-09-23T13:03:52.051Z,48.13
2023-09-23T13:06:20.482Z,48.75
2023-09-23T13:08:49.018Z,48.61
2023-09-23T13:11:17.861Z,49.21
2023-09-23T13:13:51.019Z,49.65
2023-09-23T13:16:21.573Z,50.86
2023-09-23T13:18:49.844Z,51.08
2023-09-23T13:21:19.032Z,51.38
2023-09-23T13:23:47.908Z,51.70
2023-09-23T13:26:16.705Z,51.85
2023-09-23T13:28:45.036Z,52.01
2023-09-23T13:31:13.316Z,51.55
2023-09-23T13:33:43.598Z,49.07
2023-09-23T13:36:12.089Z,49.30
2023-09-23T13:38:40.431Z,49.00
2023-09-23T13:41:08.909Z,49.10
2023-09-23T13:43:37.311Z,49.30
2023-09-23T13:46:06.300Z,50.59
2023-09-23T13:48:34.701Z,50.98
2023-09-23T13:51:07.813Z,51.12
2023-09-23T13:53:36.551Z,51.59
2023-09-23T13:56:05.056Z,51.68
2023-09-23T13:58:34.548Z,51.97
2023-09-23T14:01:02.889Z,52.43
2023-09-23T14:03:31.410Z,51.85
2023-09-23T14:05:59.710Z,52.77
2023-09-23T14:08:29.369Z,53.45
2023-09-23T14:10:57.992Z,53.27
2023-09-23T14:13:26.341Z,54.16
2023-09-23T14:15:54.554Z,54.13
2023-09-23T14:18:22.905Z,53.30
2023-09-23T14:20:52.446Z,53.07
2023-09-23T14:23:21.582Z,53.86
2023-09-23T14:25:51.399Z,54.02
2023-09-23T14:28:19.731Z,54.01
2023-09-23T14:30:48.019Z,54.38
2023-09-23T14:33:16.684Z,54.77
2023-09-23T14:35:45.230Z,55.12
2023-09-23T14:38:13.825Z,55.12
2023-09-23T14:40:42.199Z,54.94
2023-09-23T14:43:12.570Z,54.80
2023-09-23T14:45:40.830Z,55.38
2023-09-23T14:48:09.182Z,55.80
2023-09-23T14:50:39.306Z,55.99
2023-09-23T14:53:08.195Z,55.91
2023-09-23T14:55:36.548Z,56.79
2023-09-23T14:58:04.951Z,57.17
2023-09-23T15:00:36.012Z,57.02
2023-09-23T15:03:06.052Z,57.57
2023-09-23T15:05:34.791Z,58.30
2023-09-23T15:08:03.345Z,58.19
2023-09-23T15:10:31.698Z,57.81
2023-09-23T15:13:00.937Z,58.63
2023-09-23T15:15:29.226Z,58.80
2023-09-23T15:17:59.026Z,58.90
2023-09-23T15:20:27.466Z,58.67
2023-09-23T15:22:55.928Z,59.13
2023-09-23T15:25:24.221Z,59.34
2023-09-23T15:27:53.160Z,58.86
2023-09-23T15:30:24.103Z,58.53
2023-09-23T15:32:52.660Z,57.67
2023-09-23T15:35:24.855Z,57.99
2023-09-23T15:37:54.525Z,58.27
2023-09-23T15:40:23.107Z,58.89
2023-09-23T15:42:51.506Z,58.52
2023-09-23T15:45:20.169Z,58.40
2023-09-23T15:47:48.618Z,58.08
2023-09-23T15:50:17.198Z,58.22
2023-09-23T15:52:47.422Z,58.17
2023-09-23T15:55:17.162Z,58.82
2023-09-23T15:57:45.503Z,59.50
2023-09-23T16:00:15.746Z,59.94
2023-09-23T16:02:44.208Z,60.63
2023-09-23T16:05:14.187Z,60.96
2023-09-23T16:07:42.516Z,61.45
2023-09-23T16:10:12.183Z,62.07
2023-09-23T16:12:40.437Z,62.85
2023-09-23T16:15:09.394Z,62.97
2023-09-23T16:17:37.730Z,62.89
2023-09-23T16:20:07.282Z,63.00
2023-09-23T16:22:35.691Z,63.13
2023-09-23T16:25:04.307Z,63.12
2023-09-23T16:27:34.609Z,63.13
2023-09-23T16:30:04.309Z,63.05
2023-09-23T16:32:32.754Z,62.97
2023-09-23T16:35:01.130Z,63.54
2023-09-23T16:37:29.442Z,63.76
2023-09-23T16:39:57.803Z,64.08
2023-09-23T16:42:26.074Z,64.52
2023-09-23T16:44:56.041Z,64.74
2023-09-23T16:47:24.342Z,65.17
2023-09-23T16:49:52.759Z,65.27
2023-09-23T16:52:20.990Z,65.30
2023-09-23T16:54:50.651Z,65.22
2023-09-23T16:57:20.715Z,65.52
2023-09-23T16:59:49.220Z,65.61
2023-09-23T17:02:19.942Z,66.19
2023-09-23T17:04:48.916Z,66.02
2023-09-23T17:07:17.402Z,66.11
2023-09-23T17:09:45.927Z,66.03
2023-09-23T17:12:14.335Z,66.42
2023-09-23T17:14:43.038Z,66.39
2023-09-23T17:17:11.673Z,66.13
2023-09-23T17:19:42.760Z,66.70
2023-09-23T17:22:11.528Z,67.03
2023-09-23T17:24:40.098Z,67.16
2023-09-23T17:27:08.367Z,67.08
2023-09-23T17:29:36.679Z,67.52
2023-09-23T17:32:05.141Z,67.41
2023-09-23T17:34:34.730Z,67.58
2023-09-23T17:37:04.445Z,68.33
2023-09-23T17:39:34.181Z,68.54
2023-09-23T17:42:02.843Z,68.65
2023-09-23T17:44:31.180Z,68.66
2023-09-23T17:46:59.500Z,68.69
2023-09-23T17:49:29.912Z,69.02
2023-09-23T17:51:58.167Z,69.23
2023-09-23T17:54:28.105Z,69.49
2023-09-23T17:56:56.316Z,70.60
2023-09-23T17:59:24.640Z,70.56
2023-09-23T18:01:52.975Z,71.24
2023-09-23T18:04:21.308Z,71.13
2023-09-23T18:06:49.592Z,71.63
2023-09-23T18:09:17.932Z,71.70
2023-09-23T18:11:48.296Z,72.09
2023-09-23T18:14:16.815Z,72.63
2023-09-23T18:16:45.346Z,72.84
2023-09-23T18:19:13.683Z,73.17
2023-09-23T18:21:43.533Z,73.36
2023-09-23T18:24:12.721Z,73.35
2023-09-23T18:26:41.490Z,73.27
2023-09-23T18:29:11.168Z,73.20
2023-09-23T18:31:42.339Z,73.01
2023-09-23T18:34:10.695Z,72.98
2023-09-23T18:36:38.865Z,73.43
2023-09-23T18:39:07.396Z,73.66
2023-09-23T18:41:36.161Z,74.15
2023-09-23T18:44:04.797Z,74.62
2023-09-23T18:46:34.427Z,75.09
2023-09-23T18:49:02.694Z,75.07
2023-09-23T18:51:30.820Z,76.08
2023-09-23T18:53:59.062Z,76.08
2023-09-23T18:56:27.401Z,76.33
2023-09-23T18:58:55.726Z,76.91
2023-09-23T19:01:23.899Z,77.04
2023-09-23T19:03:54.046Z,76.78
2023-09-23T19:06:22.654Z,77.04
2023-09-23T19:08:51.580Z,77.50
2023-09-23T19:11:21.339Z,77.31
2023-09-23T19:13:49.590Z,77.25
2023-09-23T19:16:18.178Z,77.33
2023-09-23T19:18:46.433Z,78.42
2023-09-23T19:21:16.357Z,78.26
2023-09-23T19:23:44.815Z,78.68
2023-09-23T19:26:13.282Z,78.05
2023-09-23T19:28:45.301Z,78.35
2023-09-23T19:31:15.307Z,78.46
2023-09-23T19:33:45.674Z,78.52
2023-09-23T19:36:16.211Z,78.85
2023-09-23T19:38:44.607Z,78.54
2023-09-23T19:41:13.299Z,78.79
2023-09-23T19:43:41.625Z,79.26
2023-09-23T19:46:10.172Z,79.18
2023-09-23T19:48:38.847Z,79.47
2023-09-23T19:51:09.409Z,79.50
2023-09-23T19:53:40.064Z,79.16
2023-09-23T19:56:08.622Z,79.72
2023-09-23T19:58:36.696Z,80.20
2023-09-23T20:01:06.236Z,79.76
2023-09-23T20:03:34.510Z,80.00
2023-09-23T20:06:05.689Z,80.69
2023-09-23T20:08:33.887Z,80.42
2023-09-23T20:11:05.724Z,80.26
2023-09-23T20:13:34.073Z,80.42
2023-09-23T20:16:02.692Z,81.18
2023-09-23T20:18:30.874Z,81.24
2023-09-23T20:20:59.316Z,81.18
2023-09-23T20:23:28.487Z,81.07
2023-09-23T20:25:57.370Z,81.01
2023-09-23T20:28:27.698Z,81.37
2023-09-23T20:31:00.658Z,81.37
2023-09-23T20:33:29.440Z,81.29
2023-09-23T20:35:58.060Z,82.04
2023-09-23T20:38:26.652Z,82.12
2023-09-23T20:41:02.211Z,81.72
2023-09-23T20:43:32.571Z,81.67
2023-09-23T20:46:00.904Z,81.90
2023-09-23T20:48:29.445Z,81.76
2023-09-23T20:50:57.971Z,81.80
2023-09-23T20:53:26.218Z,82.21
2023-09-23T20:55:54.719Z,81.93
2023-09-23T20:58:23.787Z,82.18
2023-09-23T21:00:53.437Z,82.56
2023-09-23T21:03:21.711Z,82.77
2023-09-23T21:05:50.364Z,83.46
2023-09-23T21:08:18.745Z,84.05
2023-09-23T21:10:47.223Z,84.07
2023-09-23T21:13:15.819Z,84.46
2023-09-23T21:15:44.189Z,84.28
2023-09-23T21:18:14.328Z,84.54
2023-09-23T21:20:42.652Z,85.30
2023-09-23T21:23:10.842Z,85.08
2023-09-23T21:25:39.451Z,84.52
2023-09-23T21:28:08.375Z,84.77
2023-09-23T21:30:37.887Z,85.41
2023-09-23T21:33:08.325Z,85.91
2023-09-23T21:35:38.958Z,85.71
2023-09-23T21:38:08.942Z,85.37
2023-09-23T21:40:40.770Z,85.50
2023-09-23T21:43:09.626Z,85.83
2023-09-23T21:45:40.279Z,85.79
2023-09-23T21:48:10.093Z,85.68
2023-09-23T21:50:39.911Z,86.21
2023-09-23T21:53:08.100Z,86.24
2023-09-23T21:55:36.364Z,86.06
2023-09-23T21:58:04.627Z,86.50
2023-09-23T22:00:35.303Z,86.15
2023-09-23T22:03:04.638Z,86.28
2023-09-23T22:05:33.274Z,86.79
2023-09-23T22:08:04.942Z,86.56
2023-09-23T22:10:33.606Z,87.08
2023-09-23T22:13:02.313Z,86.62
2023-09-23T22:15:30.730Z,87.07
2023-09-23T22:17:59.711Z,86.61
2023-09-23T22:20:29.199Z,86.14
2023-09-23T22:23:01.106Z,85.94
2023-09-23T22:25:34.113Z,86.34
2023-09-23T22:28:02.462Z,87.21
2023-09-23T22:30:30.999Z,87.00
2023-09-23T22:33:01.570Z,87.60
2023-09-23T22:35:31.633Z,87.37
2023-09-23T22:38:01.389Z,86.69
2023-09-23T22:40:32.177Z,86.91
2023-09-23T22:43:00.692Z,86.73
2023-09-23T22:45:38.821Z,87.25
2023-09-23T22:48:08.998Z,87.17
2023-09-23T22:50:37.472Z,87.21
2023-09-23T22:53:07.154Z,86.84
2023-09-23T22:55:38.432Z,86.55
2023-09-23T22:58:06.676Z,86.63
2023-09-23T23:00:37.444Z,86.53
2023-09-23T23:03:07.839Z,86.65
2023-09-23T23:05:38.565Z,86.61
2023-09-23T23:08:09.268Z,86.53
2023-09-23T23:10:39.553Z,86.20
2023-09-23T23:13:10.483Z,86.12
2023-09-23T23:15:40.338Z,86.23
2023-09-23T23:18:09.195Z,86.20
2023-09-23T23:20:37.978Z,86.14
2023-09-23T23:23:06.232Z,86.03
2023-09-23T23:25:39.167Z,86.05
2023-09-23T23:28:08.341Z,86.24
2023-09-23T23:30:38.100Z,86.18
2023-09-23T23:33:07.421Z,85.96
2023-09-23T23:35:38.548Z,86.23
2023-09-23T23:38:07.246Z,86.30
2023-09-23T23:40:35.469Z,86.72
2023-09-23T23:43:06.715Z,86.40
2023-09-23T23:45:35.390Z,86.76
2023-09-23T23:48:03.909Z,86.59
2023-09-23T23:50:32.470Z,86.75
2023-09-23T23:53:00.861Z,86.43
2023-09-23T23:55:29.986Z,86.98
2023-09-23T23:57:59.316Z,86.88
